Time;durP1;ratioP1;P1;durP2;ratioP2;P2;SDS_P1;SDS_P2;PMS_P1;PMS_P2;Temp;Humidity;BMP_temperature;BMP_pressure;BME280_temperature;BME280_humidity;BME280_pressure;Samples;Min_cycle;Max_cycle;Signal;HPM_P1;HPM_P2
2022/07/22 00:02:22;;;;;;;6.55;2.33;;;16.80;99.90;;;;;;5035181;28;20285;-81
2022/07/22 00:04:49;;;;;;;6.53;1.85;;;16.80;99.90;;;;;;5033300;28;20229;-81
2022/07/22 00:07:16;;;;;;;5.95;1.92;;;16.80;99.90;;;;;;5035261;28;20531;-79
2022/07/22 00:09:43;;;;;;;7.63;1.88;;;16.80;99.90;;;;;;5035037;28;20270;-79
2022/07/22 00:12:10;;;;;;;4.43;1.50;;;16.80;99.90;;;;;;5035046;28;20297;-80
2022/07/22 00:14:39;;;;;;;5.85;1.65;;;16.80;99.90;;;;;;5034558;28;20202;-81
2022/07/22 00:17:05;;;;;;;6.28;2.10;;;16.80;99.90;;;;;;5035360;28;20231;-81
2022/07/22 00:19:32;;;;;;;4.82;1.80;;;16.80;99.90;;;;;;5034635;28;20207;-81
2022/07/22 00:21:59;;;;;;;3.42;1.67;;;16.80;99.90;;;;;;5034549;28;20224;-79
2022/07/22 00:24:26;;;;;;;5.82;1.63;;;16.80;99.90;;;;;;5034620;28;20481;-79
2022/07/22 00:26:53;;;;;;;4.85;1.50;;;16.80;99.90;;;;;;5034729;28;20525;-78
2022/07/22 00:29:20;;;;;;;4.25;1.42;;;16.80;99.90;;;;;;5033926;28;20657;-79
2022/07/22 00:31:48;;;;;;;4.78;1.85;;;16.80;99.90;;;;;;5034325;28;20282;-79
2022/07/22 00:34:15;;;;;;;3.13;1.50;;;16.80;99.90;;;;;;5035099;28;20301;-79
2022/07/22 00:36:42;;;;;;;5.68;1.70;;;16.80;99.90;;;;;;5015196;28;20230;-78
2022/07/22 00:39:09;;;;;;;4.07;1.50;;;16.80;99.90;;;;;;5014328;28;20207;-78
2022/07/22 00:41:36;;;;;;;3.83;1.45;;;16.80;99.90;;;;;;5014900;28;20223;-79
2022/07/22 00:44:05;;;;;;;3.00;1.50;;;16.80;99.90;;;;;;5018108;28;20207;-79
2022/07/22 00:46:33;;;;;;;3.70;1.38;;;16.70;99.90;;;;;;5033823;28;20218;-80
2022/07/22 00:49:03;;;;;;;4.30;1.60;;;16.70;99.90;;;;;;5040738;23;20322;-81
2022/07/22 00:51:31;;;;;;;2.97;1.48;;;16.80;99.90;;;;;;5034635;28;20210;-80
2022/07/22 00:53:59;;;;;;;3.85;1.38;;;16.80;99.90;;;;;;5032982;28;20215;-81
2022/07/22 00:56:26;;;;;;;2.45;1.40;;;16.80;99.90;;;;;;5034865;28;20195;-81
2022/07/22 00:58:55;;;;;;;1.50;1.20;;;16.70;99.90;;;;;;5033522;28;20210;-81
2022/07/22 01:01:23;;;;;;;2.08;1.10;;;16.70;99.90;;;;;;5034250;28;20203;-80
2022/07/22 01:03:50;;;;;;;2.33;1.23;;;16.70;99.90;;;;;;5030792;28;20214;-80
2022/07/22 01:06:18;;;;;;;3.70;1.50;;;16.70;99.90;;;;;;5015098;28;20767;-81
2022/07/22 01:08:45;;;;;;;4.55;1.42;;;16.70;99.90;;;;;;5014727;28;20195;-81
2022/07/22 01:11:14;;;;;;;4.28;1.52;;;16.70;99.90;;;;;;5028612;28;20206;-81
2022/07/22 01:13:42;;;;;;;2.35;1.00;;;16.70;99.90;;;;;;5034040;28;20405;-80
2022/07/22 01:16:10;;;;;;;2.20;1.20;;;16.70;99.90;;;;;;5034704;28;20587;-81
2022/07/22 01:18:38;;;;;;;2.42;1.10;;;16.70;99.90;;;;;;5034420;28;20202;-80
2022/07/22 01:21:07;;;;;;;3.55;1.23;;;16.70;99.90;;;;;;5033867;28;20195;-80
2022/07/22 01:23:35;;;;;;;1.95;1.10;;;16.70;99.90;;;;;;5034378;28;20233;-80
2022/07/22 01:26:02;;;;;;;3.13;1.20;;;16.70;99.90;;;;;;5034088;28;20220;-80
2022/07/22 01:28:29;;;;;;;2.30;1.35;;;16.70;99.90;;;;;;5034058;28;20217;-80
2022/07/22 01:30:56;;;;;;;5.30;1.65;;;16.70;99.90;;;;;;5036448;28;20575;-80
2022/07/22 01:33:24;;;;;;;5.15;1.30;;;16.70;99.90;;;;;;5036730;28;20205;-81
2022/07/22 01:35:51;;;;;;;5.53;1.42;;;16.70;99.90;;;;;;5035212;28;20198;-79
2022/07/22 01:38:19;;;;;;;2.50;1.20;;;16.60;99.90;;;;;;5036076;28;20286;-79
2022/07/22 01:40:47;;;;;;;3.92;1.20;;;16.60;99.90;;;;;;5029682;28;20231;-79
2022/07/22 01:43:17;;;;;;;3.70;1.35;;;16.60;99.90;;;;;;5013198;28;20207;-77
2022/07/22 01:45:45;;;;;;;2.90;1.25;;;16.60;99.90;;;;;;5013923;28;20542;-78
2022/07/22 01:48:12;;;;;;;4.70;1.20;;;16.60;99.90;;;;;;5012118;28;20243;-78
2022/07/22 01:50:39;;;;;;;2.22;1.00;;;16.60;99.90;;;;;;5013015;28;20249;-79
2022/07/22 01:53:07;;;;;;;2.88;1.38;;;16.60;97.30;;;;;;5012592;28;20615;-79
2022/07/22 01:55:36;;;;;;;2.88;1.35;;;16.60;81.20;;;;;;5013553;28;20230;-82
2022/07/22 01:58:04;;;;;;;1.77;0.88;;;16.60;83.20;;;;;;5012673;28;20196;-79
2022/07/22 02:00:31;;;;;;;3.17;1.10;;;16.60;75.90;;;;;;5013091;28;20203;-78
2022/07/22 02:02:58;;;;;;;2.38;1.08;;;16.60;51.10;;;;;;5012610;28;20213;-78
2022/07/22 02:05:25;;;;;;;3.38;1.20;;;16.60;44.90;;;;;;5013638;28;20229;-79
2022/07/22 02:07:52;;;;;;;2.30;0.80;;;16.60;44.10;;;;;;5013432;28;20229;-79
2022/07/22 02:10:19;;;;;;;3.63;1.13;;;16.60;41.20;;;;;;5012564;28;20196;-78
2022/07/22 02:12:47;;;;;;;1.48;0.80;;;16.60;31.30;;;;;;5012000;28;20600;-81
2022/07/22 02:15:14;;;;;;;4.20;1.50;;;16.60;32.00;;;;;;5013208;28;20206;-79
2022/07/22 02:17:41;;;;;;;1.98;1.00;;;16.60;33.10;;;;;;5012151;28;20219;-79
2022/07/22 02:20:09;;;;;;;3.30;0.95;;;16.60;27.60;;;;;;5013261;28;20247;-80
2022/07/22 02:22:36;;;;;;;2.03;0.98;;;16.50;29.70;;;;;;5013144;28;20745;-79
2022/07/22 02:25:04;;;;;;;2.35;1.20;;;16.50;27.50;;;;;;5011626;28;20225;-80
2022/07/22 02:27:31;;;;;;;1.73;0.90;;;16.50;28.70;;;;;;5012695;28;20223;-78
2022/07/22 02:29:59;;;;;;;1.75;1.00;;;16.50;26.10;;;;;;5013265;28;20586;-80
2022/07/22 02:32:26;;;;;;;1.98;1.00;;;16.50;28.40;;;;;;5011856;28;20622;-79
2022/07/22 02:34:52;;;;;;;1.77;0.82;;;16.50;28.90;;;;;;5012745;28;20199;-80
2022/07/22 02:37:19;;;;;;;1.15;0.80;;;16.50;29.30;;;;;;5012950;28;20206;-80
2022/07/22 02:39:46;;;;;;;0.85;0.63;;;16.50;32.80;;;;;;5010988;28;20214;-80
2022/07/22 02:42:13;;;;;;;1.80;0.80;;;16.50;35.70;;;;;;5013218;28;20521;-80
2022/07/22 02:44:40;;;;;;;3.45;1.08;;;16.50;39.10;;;;;;5012755;28;20200;-80
2022/07/22 02:47:08;;;;;;;2.95;0.80;;;16.50;41.60;;;;;;5011641;28;20219;-80
2022/07/22 02:49:35;;;;;;;1.10;1.00;;;16.50;45.00;;;;;;5012521;28;20272;-78
2022/07/22 02:52:02;;;;;;;1.48;0.90;;;16.50;47.30;;;;;;5011437;28;20265;-80
2022/07/22 02:54:29;;;;;;;0.82;0.80;;;16.50;50.40;;;;;;5011927;28;20278;-80
2022/07/22 02:56:56;;;;;;;1.10;0.80;;;16.40;53.00;;;;;;5013273;28;20215;-81
2022/07/22 02:59:23;;;;;;;2.05;1.00;;;16.40;55.80;;;;;;5015677;28;20223;-81
2022/07/22 03:01:50;;;;;;;3.20;1.00;;;16.50;60.00;;;;;;5019323;28;20202;-81
2022/07/22 03:04:18;;;;;;;1.83;1.08;;;16.40;56.30;;;;;;5019670;28;20289;-79
2022/07/22 03:06:45;;;;;;;1.58;1.05;;;16.40;56.80;;;;;;5018269;28;20199;-80
2022/07/22 03:09:12;;;;;;;2.30;1.00;;;16.40;55.50;;;;;;5019729;28;20203;-80
2022/07/22 03:11:39;;;;;;;1.88;1.10;;;16.40;58.00;;;;;;5019938;28;20199;-81
2022/07/22 03:14:06;;;;;;;1.98;0.98;;;16.40;56.50;;;;;;5018423;28;20608;-80
2022/07/22 03:16:33;;;;;;;2.30;1.25;;;16.40;64.20;;;;;;5019403;28;20222;-80
2022/07/22 03:19:00;;;;;;;1.67;0.98;;;16.40;65.70;;;;;;5018821;28;20207;-80
2022/07/22 03:21:28;;;;;;;6.53;1.63;;;16.40;69.80;;;;;;5018828;28;20202;-81
2022/07/22 03:23:55;;;;;;;2.85;1.25;;;16.40;77.20;;;;;;5019130;28;20920;-80
2022/07/22 03:26:23;;;;;;;4.38;1.58;;;16.40;79.90;;;;;;5018710;28;20234;-80
2022/07/22 03:28:49;;;;;;;2.38;1.27;;;16.40;83.30;;;;;;5018583;28;20502;-80
2022/07/22 03:31:16;;;;;;;1.52;1.20;;;16.40;90.80;;;;;;5018855;28;20199;-80
2022/07/22 03:33:43;;;;;;;4.05;1.40;;;16.40;92.00;;;;;;5018662;28;20210;-80
2022/07/22 03:36:10;;;;;;;2.35;1.45;;;16.40;94.40;;;;;;5018421;28;20501;-79
2022/07/22 03:38:38;;;;;;;5.60;1.60;;;16.40;95.00;;;;;;5018912;28;20575;-80
2022/07/22 03:41:05;;;;;;;2.90;1.38;;;16.40;96.10;;;;;;5018656;28;20231;-79
2022/07/22 03:43:32;;;;;;;3.88;1.40;;;16.40;97.70;;;;;;5018503;28;20605;-80
2022/07/22 03:45:59;;;;;;;4.28;1.52;;;16.40;99.20;;;;;;5018629;28;20289;-79
2022/07/22 03:48:26;;;;;;;5.10;1.80;;;16.40;99.90;;;;;;5018155;28;20237;-81
2022/07/22 03:50:53;;;;;;;3.28;1.13;;;16.40;99.90;;;;;;5018378;28;20207;-81
2022/07/22 03:53:21;;;;;;;3.78;1.60;;;16.40;99.90;;;;;;5019134;28;20604;-79
2022/07/22 03:55:49;;;;;;;3.80;1.20;;;16.40;99.90;;;;;;5015573;28;20203;-80
2022/07/22 03:58:17;;;;;;;1.70;1.45;;;16.30;99.90;;;;;;5018157;28;20245;-81
2022/07/22 04:00:44;;;;;;;3.80;1.30;;;16.30;99.90;;;;;;5017822;28;20218;-80
2022/07/22 04:03:11;;;;;;;4.65;1.73;;;16.40;99.90;;;;;;5017907;28;20203;-79
2022/07/22 04:05:37;;;;;;;4.47;1.88;;;16.40;99.90;;;;;;5018045;28;20207;-78
2022/07/22 04:08:05;;;;;;;3.90;1.50;;;16.40;94.00;;;;;;5018049;28;20218;-80
2022/07/22 04:10:32;;;;;;;5.53;1.75;;;16.40;91.20;;;;;;5015992;28;20192;-79
2022/07/22 04:13:00;;;;;;;6.20;1.63;;;16.40;88.40;;;;;;5014935;28;20203;-78
2022/07/22 04:15:27;;;;;;;4.70;1.65;;;16.40;86.20;;;;;;5014225;28;20214;-79
2022/07/22 04:17:54;;;;;;;4.53;1.50;;;16.40;83.30;;;;;;5010430;28;20310;-78
2022/07/22 04:20:21;;;;;;;4.13;1.90;;;16.40;77.40;;;;;;5014850;28;20206;-79
2022/07/22 04:22:48;;;;;;;6.13;1.75;;;16.40;76.60;;;;;;5009185;28;20224;-81
2022/07/22 04:25:15;;;;;;;7.32;1.75;;;16.30;66.80;;;;;;5015002;28;20195;-81
2022/07/22 04:27:42;;;;;;;4.68;1.70;;;16.40;60.90;;;;;;5015202;28;20234;-77
2022/07/22 04:30:11;;;;;;;3.92;1.58;;;16.40;45.60;;;;;;5014920;28;20290;-78
2022/07/22 04:32:38;;;;;;;2.67;1.45;;;16.40;52.70;;;;;;5013661;28;20298;-79
2022/07/22 04:35:06;;;;;;;3.13;1.50;;;16.40;44.70;;;;;;5014339;28;20206;-79
2022/07/22 04:37:33;;;;;;;6.68;2.03;;;16.40;45.60;;;;;;5014632;28;20526;-77
2022/07/22 04:40:00;;;;;;;2.85;1.40;;;16.40;43.80;;;;;;5014808;28;20207;-79
2022/07/22 04:42:27;;;;;;;2.15;1.30;;;16.40;44.40;;;;;;5014095;28;20639;-77
2022/07/22 04:44:54;;;;;;;3.95;1.30;;;16.40;46.20;;;;;;5013517;28;20603;-78
2022/07/22 04:47:22;;;;;;;4.15;1.70;;;16.40;47.00;;;;;;5013897;28;20207;-79
2022/07/22 04:49:51;;;;;;;7.50;1.60;;;16.40;50.20;;;;;;5014251;28;20235;-77
2022/07/22 04:52:18;;;;;;;4.32;1.88;;;16.40;48.20;;;;;;5014085;28;20195;-79
2022/07/22 04:54:44;;;;;;;3.45;1.52;;;16.40;37.00;;;;;;5014153;28;20748;-80
2022/07/22 04:57:11;;;;;;;5.30;1.75;;;16.40;37.90;;;;;;5014001;28;20234;-79
2022/07/22 04:59:38;;;;;;;2.78;1.30;;;16.50;39.90;;;;;;5014001;28;20215;-78
2022/07/22 05:02:05;;;;;;;2.25;1.40;;;16.50;41.10;;;;;;5014004;28;20210;-78
2022/07/22 05:04:33;;;;;;;7.10;1.67;;;16.50;43.10;;;;;;5014192;28;20748;-80
2022/07/22 05:07:02;;;;;;;3.40;1.60;;;16.50;35.50;;;;;;5013613;28;20199;-80
2022/07/22 05:09:29;;;;;;;2.88;1.73;;;16.50;30.60;;;;;;5014331;28;20295;-80
2022/07/22 05:11:56;;;;;;;3.28;1.77;;;16.50;28.80;;;;;;5013715;28;20207;-79
2022/07/22 05:14:23;;;;;;;5.05;1.50;;;16.50;19.60;;;;;;5013739;28;20215;-77
2022/07/22 05:16:50;;;;;;;6.80;2.28;;;16.50;17.00;;;;;;5013839;28;20234;-77
2022/07/22 05:19:16;;;;;;;4.03;1.63;;;16.60;2.60;;;;;;5013869;28;20631;-79
2022/07/22 05:21:45;;;;;;;3.25;1.40;;;16.60;1.00;;;;;;5012452;28;20291;-79
2022/07/22 05:24:12;;;;;;;2.55;1.42;;;16.60;1.00;;;;;;5013840;28;20232;-80
2022/07/22 05:26:38;;;;;;;2.95;1.33;;;16.60;1.00;;;;;;5013979;28;20214;-78
2022/07/22 05:29:05;;;;;;;2.58;1.52;;;16.60;1.00;;;;;;5012642;28;20665;-78
2022/07/22 05:31:32;;;;;;;2.72;1.10;;;16.70;1.00;;;;;;5013116;28;20512;-79
2022/07/22 05:33:59;;;;;;;1.65;1.35;;;16.70;1.00;;;;;;5011594;28;20207;-78
2022/07/22 05:36:26;;;;;;;2.75;1.30;;;16.70;1.00;;;;;;5007887;28;20199;-80
2022/07/22 05:38:54;;;;;;;3.72;1.45;;;16.80;1.00;;;;;;5008289;28;20240;-79
2022/07/22 05:41:21;;;;;;;2.47;1.38;;;16.80;1.00;;;;;;5008988;28;20215;-80
2022/07/22 05:43:48;;;;;;;3.67;1.73;;;16.80;1.00;;;;;;5013057;28;20687;-79
2022/07/22 05:46:15;;;;;;;2.42;1.40;;;16.90;1.00;;;;;;5012005;28;20207;-80
2022/07/22 05:48:42;;;;;;;2.33;1.20;;;16.90;1.00;;;;;;5008974;28;20614;-79
2022/07/22 05:51:13;;;;;;;3.15;1.50;;;17.00;1.00;;;;;;5012481;28;20545;-81
2022/07/22 05:53:40;;;;;;;2.58;1.33;;;17.00;1.00;;;;;;5012958;28;20195;-78
2022/07/22 05:56:10;;;;;;;4.10;1.42;;;17.00;1.00;;;;;;5012201;28;20307;-77
2022/07/22 05:58:37;;;;;;;3.30;1.00;;;17.10;1.00;;;;;;5013240;28;20237;-77
2022/07/22 06:01:05;;;;;;;2.08;1.10;;;17.20;1.00;;;;;;5012998;28;20566;-77
2022/07/22 06:03:32;;;;;;;2.20;1.30;;;17.20;1.00;;;;;;5012920;28;20196;-80
2022/07/22 06:06:01;;;;;;;3.78;1.30;;;17.30;1.00;;;;;;5013380;28;20203;-81
2022/07/22 06:08:28;;;;;;;6.22;1.52;;;17.30;1.00;;;;;;5012474;28;20203;-78
2022/07/22 06:10:55;;;;;;;3.33;1.50;;;17.30;1.00;;;;;;5012169;28;20200;-79
2022/07/22 06:13:23;;;;;;;2.63;1.10;;;17.30;1.00;;;;;;5013056;28;20218;-78
2022/07/22 06:15:50;;;;;;;3.75;1.40;;;17.20;1.00;;;;;;5012444;28;20596;-77
2022/07/22 06:18:17;;;;;;;5.97;1.73;;;17.20;1.00;;;;;;5011583;28;20321;-77
2022/07/22 06:20:44;;;;;;;3.25;1.38;;;17.30;1.00;;;;;;5012311;28;20645;-77
2022/07/22 06:23:11;;;;;;;4.03;1.38;;;17.30;1.00;;;;;;5012015;28;20230;-77
2022/07/22 06:25:38;;;;;;;3.30;1.42;;;17.30;1.00;;;;;;5012166;28;20646;-77
2022/07/22 06:28:05;;;;;;;3.15;1.00;;;17.20;1.00;;;;;;5012600;28;20495;-77
2022/07/22 06:30:34;;;;;;;5.13;1.30;;;17.30;1.00;;;;;;5012095;28;20207;-78
2022/07/22 06:33:01;;;;;;;2.63;1.20;;;17.30;1.00;;;;;;5011692;28;20211;-77
2022/07/22 06:35:27;;;;;;;2.67;1.10;;;17.40;1.00;;;;;;5012533;28;20581;-78
2022/07/22 06:37:55;;;;;;;3.95;1.13;;;17.40;1.00;;;;;;5010961;28;20226;-79
2022/07/22 06:40:22;;;;;;;1.10;1.00;;;17.40;1.00;;;;;;5012555;28;20203;-77
2022/07/22 06:42:49;;;;;;;1.88;1.13;;;17.40;1.00;;;;;;5012435;28;20203;-78
2022/07/22 06:45:15;;;;;;;1.30;0.90;;;17.50;99.90;;;;;;5011213;28;20658;-78
2022/07/22 06:47:44;;;;;;;2.00;1.02;;;17.50;99.90;;;;;;5012121;28;20197;-79
2022/07/22 06:50:11;;;;;;;1.98;1.13;;;17.50;99.90;;;;;;5012633;28;20195;-79
2022/07/22 06:52:46;;;;;;;3.15;1.27;;;17.60;99.90;;;;;;5010973;28;20603;-78
2022/07/22 06:55:13;;;;;;;4.25;1.23;;;17.60;99.90;;;;;;5012286;28;20248;-79
2022/07/22 06:57:40;;;;;;;3.92;1.20;;;17.60;99.90;;;;;;5011590;28;20226;-79
2022/07/22 07:00:08;;;;;;;2.80;1.30;;;17.60;1.00;;;;;;5011338;28;20245;-79
2022/07/22 07:02:36;;;;;;;3.90;1.10;;;17.70;29.90;;;;;;5012278;28;20203;-81
2022/07/22 07:05:05;;;;;;;2.63;1.60;;;17.70;99.90;;;;;;5012445;28;20283;-79
2022/07/22 07:07:32;;;;;;;2.80;1.42;;;17.80;85.60;;;;;;5011374;28;20310;-79
2022/07/22 07:09:59;;;;;;;1.70;1.20;;;17.80;99.90;;;;;;5011517;28;20280;-78
2022/07/22 07:12:25;;;;;;;4.32;1.50;;;17.90;99.90;;;;;;5010212;28;20211;-81
2022/07/22 07:14:52;;;;;;;2.15;1.10;;;18.00;1.00;;;;;;5012192;28;20207;-79
2022/07/22 07:17:19;;;;;;;2.67;1.13;;;18.00;1.00;;;;;;5007310;28;20196;-77
2022/07/22 07:19:46;;;;;;;2.38;1.20;;;18.00;1.00;;;;;;5012080;28;20250;-76
2022/07/22 07:22:14;;;;;;;1.60;1.00;;;18.20;1.00;;;;;;5005558;28;20681;-76
2022/07/22 07:24:42;;;;;;;1.65;0.70;;;18.20;1.00;;;;;;5004267;28;20805;-78
2022/07/22 07:27:09;;;;;;;3.58;1.60;;;18.20;1.00;;;;;;5003618;28;20211;-78
2022/07/22 07:29:36;;;;;;;4.13;1.20;;;18.30;1.00;;;;;;5011266;28;20203;-79
2022/07/22 07:32:03;;;;;;;2.05;0.82;;;18.30;99.90;;;;;;5001944;28;20250;-77
2022/07/22 07:34:29;;;;;;;2.33;1.52;;;18.40;1.00;;;;;;5007695;28;20203;-81
2022/07/22 07:36:57;;;;;;;4.38;1.65;;;18.50;1.00;;;;;;5011548;28;20203;-81
2022/07/22 07:39:26;;;;;;;1.35;1.05;;;18.50;1.00;;;;;;4998270;28;20230;-78
2022/07/22 07:41:53;;;;;;;1.48;0.90;;;18.60;1.00;;;;;;4993061;28;20228;-80
2022/07/22 07:44:20;;;;;;;1.00;0.82;;;18.70;99.90;;;;;;4992662;28;20627;-81
2022/07/22 07:46:47;;;;;;;2.15;1.02;;;18.80;1.00;;;;;;4999688;28;20298;-79
2022/07/22 07:49:13;;;;;;;2.97;1.00;;;18.90;99.90;;;;;;5007390;28;20241;-79
2022/07/22 07:51:40;;;;;;;1.30;1.05;;;18.90;99.90;;;;;;5001213;28;20204;-78
2022/07/22 07:54:07;;;;;;;2.45;0.93;;;19.00;1.00;;;;;;5006890;28;20214;-81
2022/07/22 07:56:35;;;;;;;1.85;1.10;;;19.00;1.00;;;;;;5007322;28;20207;-80
2022/07/22 07:59:03;;;;;;;2.75;1.05;;;19.00;1.00;;;;;;4995773;28;20399;-78
2022/07/22 08:01:30;;;;;;;1.15;0.90;;;19.10;1.00;;;;;;5006627;28;20556;-78
2022/07/22 08:03:57;;;;;;;4.45;1.05;;;19.00;99.90;;;;;;5014791;28;20825;-78
2022/07/22 08:06:23;;;;;;;2.90;0.98;;;19.10;99.90;;;;;;5015315;28;20211;-79
2022/07/22 08:08:51;;;;;;;1.90;1.02;;;19.10;1.00;;;;;;5014279;28;20908;-77
2022/07/22 08:11:18;;;;;;;2.70;1.10;;;19.20;1.00;;;;;;5014575;28;20257;-77
2022/07/22 08:13:46;;;;;;;1.80;1.10;;;19.20;99.90;;;;;;5014436;28;20634;-80
2022/07/22 08:16:13;;;;;;;2.42;1.17;;;19.10;99.90;;;;;;5014755;28;20287;-78
2022/07/22 08:18:41;;;;;;;4.05;1.27;;;19.20;99.90;;;;;;5014815;28;20219;-78
2022/07/22 08:21:08;;;;;;;1.38;0.90;;;19.30;99.90;;;;;;5013982;28;20222;-78
2022/07/22 08:23:35;;;;;;;1.38;0.90;;;19.30;99.90;;;;;;5014009;28;20207;-79
2022/07/22 08:26:02;;;;;;;3.47;1.08;;;19.30;99.90;;;;;;5014948;28;20195;-80
2022/07/22 08:28:29;;;;;;;1.17;0.90;;;19.30;99.90;;;;;;5012961;28;20208;-81
2022/07/22 08:30:57;;;;;;;2.25;1.10;;;19.30;1.00;;;;;;5013770;28;20207;-78
2022/07/22 08:33:24;;;;;;;3.83;1.20;;;19.30;1.00;;;;;;5013802;28;20218;-79
2022/07/22 08:35:51;;;;;;;2.88;1.00;;;19.20;1.00;;;;;;5013542;28;20207;-79
2022/07/22 08:38:18;;;;;;;1.85;1.08;;;19.20;1.00;;;;;;5014257;28;20235;-79
2022/07/22 08:40:45;;;;;;;1.85;1.20;;;19.20;1.00;;;;;;5014024;28;20215;-77
2022/07/22 08:43:12;;;;;;;3.15;1.30;;;19.30;1.00;;;;;;5013820;28;20209;-79
2022/07/22 08:45:41;;;;;;;3.88;1.33;;;19.30;99.90;;;;;;5013773;28;20199;-78
2022/07/22 08:48:10;;;;;;;2.67;1.17;;;19.30;1.00;;;;;;5013714;28;20334;-78
2022/07/22 08:50:36;;;;;;;2.83;1.27;;;19.20;1.00;;;;;;5013761;28;20596;-79
2022/07/22 08:53:04;;;;;;;1.73;1.08;;;19.20;99.90;;;;;;5012571;28;20207;-79
2022/07/22 08:55:31;;;;;;;1.55;1.08;;;19.20;1.00;;;;;;5012863;28;20250;-77
2022/07/22 08:57:58;;;;;;;1.92;1.23;;;19.10;1.00;;;;;;5012389;28;20196;-78
2022/07/22 09:00:25;;;;;;;3.10;1.00;;;19.10;99.90;;;;;;5013301;28;20199;-79
2022/07/22 09:02:52;;;;;;;1.17;0.95;;;19.10;99.90;;;;;;5013808;28;20203;-78
2022/07/22 09:05:20;;;;;;;1.65;1.10;;;19.10;1.00;;;;;;5011667;28;20306;-80
2022/07/22 09:07:47;;;;;;;1.88;1.02;;;19.20;99.90;;;;;;5013772;28;20199;-79
2022/07/22 09:10:17;;;;;;;2.80;0.90;;;19.20;1.00;;;;;;5012005;28;20211;-80
2022/07/22 09:12:59;;;;;;;3.08;0.80;;;19.30;1.00;;;;;;5013516;28;20202;-79
2022/07/22 09:15:28;;;;;;;4.78;1.42;;;19.30;2.50;;;;;;5013362;28;20285;-78
2022/07/22 09:17:55;;;;;;;1.40;1.00;;;19.30;99.90;;;;;;5019402;23;20324;-78
2022/07/22 09:20:24;;;;;;;4.28;1.08;;;19.30;99.90;;;;;;5013443;28;20591;-79
2022/07/22 09:22:52;;;;;;;6.68;1.23;;;19.40;1.00;;;;;;5011648;28;20283;-80
2022/07/22 09:25:23;;;;;;;2.40;1.30;;;19.40;99.90;;;;;;4993821;28;20295;-78
2022/07/22 09:27:51;;;;;;;2.58;1.02;;;19.50;99.90;;;;;;4993418;28;20332;-79
2022/07/22 09:30:20;;;;;;;3.65;0.90;;;19.60;99.90;;;;;;4993754;28;20278;-78
2022/07/22 09:32:47;;;;;;;2.90;0.90;;;19.60;99.90;;;;;;4994200;28;20200;-79
2022/07/22 09:35:15;;;;;;;1.83;0.85;;;19.70;99.90;;;;;;4993123;28;20518;-79
2022/07/22 09:37:55;;;;;;;4.45;0.95;;;19.80;1.00;;;;;;4994177;28;20747;-79
2022/07/22 09:40:24;;;;;;;2.80;1.00;;;19.80;1.00;;;;;;4993526;28;20191;-78
2022/07/22 09:42:55;;;;;;;2.75;1.20;;;19.70;25.00;;;;;;4999899;28;20207;-79
2022/07/22 09:45:23;;;;;;;2.00;0.90;;;19.70;1.00;;;;;;5003636;28;20219;-78
2022/07/22 09:47:51;;;;;;;1.95;1.13;;;19.60;99.90;;;;;;4992603;28;20207;-78
2022/07/22 09:50:21;;;;;;;2.80;1.08;;;19.70;1.00;;;;;;4992688;28;20203;-78
2022/07/22 09:52:49;;;;;;;2.15;1.00;;;19.70;52.60;;;;;;4998451;28;20861;-77
2022/07/22 09:55:18;;;;;;;2.35;1.23;;;19.80;99.90;;;;;;4992642;28;20204;-78
2022/07/22 09:57:46;;;;;;;1.65;1.23;;;19.90;63.60;;;;;;4993308;28;20192;-78
2022/07/22 10:00:15;;;;;;;5.70;1.30;;;19.90;1.00;;;;;;4997554;28;20229;-80
2022/07/22 10:02:46;;;;;;;2.45;1.20;;;19.90;1.00;;;;;;5012026;28;20235;-80
2022/07/22 10:05:15;;;;;;;1.83;1.20;;;19.90;1.00;;;;;;5013125;28;20188;-79
2022/07/22 10:07:44;;;;;;;2.72;1.25;;;20.10;1.00;;;;;;5012912;28;20188;-79
2022/07/22 10:10:13;;;;;;;2.92;1.15;;;20.10;1.00;;;;;;5011282;28;20261;-80
2022/07/22 10:12:42;;;;;;;2.00;1.17;;;20.00;1.00;;;;;;5012938;28;20306;-76
2022/07/22 10:15:10;;;;;;;3.03;1.25;;;20.10;1.00;;;;;;5011513;28;20679;-77
2022/07/22 10:17:38;;;;;;;1.58;1.00;;;20.00;1.00;;;;;;5013002;28;20242;-77
2022/07/22 10:20:07;;;;;;;3.13;1.20;;;20.00;1.00;;;;;;5012467;28;20215;-79
2022/07/22 10:22:57;;;;;;;2.50;1.10;;;19.90;1.00;;;;;;5005704;28;20589;-78
2022/07/22 10:25:25;;;;;;;3.58;1.40;;;19.80;1.00;;;;;;4993223;28;20283;-78
2022/07/22 10:27:57;;;;;;;2.30;0.95;;;19.70;1.00;;;;;;5003399;28;20209;-78
2022/07/22 10:30:26;;;;;;;2.45;0.90;;;19.70;1.00;;;;;;5012194;28;20698;-78
2022/07/22 10:33:07;;;;;;;3.20;1.60;;;19.80;99.90;;;;;;5012402;28;20233;-79
2022/07/22 10:35:36;;;;;;;5.30;1.30;;;19.80;1.00;;;;;;5001847;28;20222;-79
2022/07/22 10:38:06;;;;;;;2.85;1.50;;;19.80;1.00;;;;;;4992068;28;20515;-79
2022/07/22 10:40:47;;;;;;;1.77;0.93;;;19.90;1.00;;;;;;4993070;28;20216;-78
2022/07/22 10:43:16;;;;;;;1.23;1.00;;;19.90;1.00;;;;;;4992729;28;20604;-80
2022/07/22 10:45:47;;;;;;;2.78;1.13;;;20.00;99.90;;;;;;4992809;28;20188;-78
2022/07/22 10:48:16;;;;;;;3.10;1.15;;;20.10;99.90;;;;;;4992101;28;20208;-80
2022/07/22 10:51:07;;;;;;;2.83;1.33;;;20.10;1.00;;;;;;5004515;28;20485;-80
2022/07/22 10:53:43;;;;;;;3.53;1.30;;;20.20;1.00;;;;;;5011894;28;20593;-80
2022/07/22 10:56:23;;;;;;;4.05;1.40;;;20.20;99.90;;;;;;5011732;28;20209;-79
2022/07/22 10:59:12;;;;;;;3.58;1.33;;;20.20;1.00;;;;;;5011544;28;20250;-79
2022/07/22 11:01:42;;;;;;;5.63;1.25;;;20.30;1.00;;;;;;5007799;28;20226;-79
2022/07/22 11:04:15;;;;;;;2.83;1.23;;;20.40;99.90;;;;;;5012424;28;20203;-78
2022/07/22 11:06:42;;;;;;;2.03;0.90;;;20.40;99.90;;;;;;5011253;28;20522;-77
2022/07/22 11:09:11;;;;;;;1.35;1.10;;;20.50;1.00;;;;;;4997851;28;20266;-80
2022/07/22 11:11:42;;;;;;;3.67;1.23;;;20.60;1.00;;;;;;4992397;28;20266;-80
2022/07/22 11:14:24;;;;;;;1.55;1.00;;;20.60;99.90;;;;;;4992759;28;20204;-81
2022/07/22 11:16:52;;;;;;;5.10;1.42;;;20.50;75.30;;;;;;4993487;28;20242;-80
2022/07/22 11:19:24;;;;;;;3.72;1.10;;;20.50;99.90;;;;;;4999106;28;20225;-82
2022/07/22 11:21:53;;;;;;;2.30;1.00;;;20.30;1.00;;;;;;5017730;28;20213;-83
2022/07/22 11:24:21;;;;;;;3.60;1.17;;;20.30;99.90;;;;;;5015377;28;20203;-80
2022/07/22 11:26:50;;;;;;;2.42;1.13;;;20.20;99.90;;;;;;4997313;28;20207;-87
2022/07/22 11:29:25;;;;;;;2.75;1.48;;;20.20;99.90;;;;;;4999767;28;20196;-79
2022/07/22 11:31:52;;;;;;;4.25;1.42;;;20.20;99.90;;;;;;5017203;28;20191;-80
2022/07/22 11:34:20;;;;;;;2.25;1.13;;;20.20;99.90;;;;;;5016750;28;20202;-80
2022/07/22 11:36:47;;;;;;;4.10;1.60;;;20.30;1.00;;;;;;5016714;28;20207;-83
2022/07/22 11:39:18;;;;;;;2.45;0.95;;;20.30;99.90;;;;;;5016469;28;20317;-81
2022/07/22 11:41:45;;;;;;;1.95;1.10;;;20.40;1.00;;;;;;5016817;28;20218;-83
2022/07/22 11:44:12;;;;;;;2.58;0.98;;;20.50;1.00;;;;;;5007261;28;20310;-83
2022/07/22 11:46:43;;;;;;;3.15;1.00;;;20.60;99.90;;;;;;4996988;28;20200;-82
2022/07/22 11:49:13;;;;;;;1.65;1.10;;;20.70;1.00;;;;;;4996944;28;20275;-83
2022/07/22 11:51:40;;;;;;;3.05;1.20;;;20.70;1.00;;;;;;5009513;28;20233;-81
2022/07/22 11:54:08;;;;;;;1.70;0.90;;;20.70;1.00;;;;;;5015854;28;20278;-81
2022/07/22 11:56:35;;;;;;;2.03;1.08;;;20.80;18.50;;;;;;5016243;28;20203;-84
2022/07/22 11:59:04;;;;;;;1.98;1.10;;;21.00;1.00;;;;;;5016515;28;20230;-83
2022/07/22 12:01:33;;;;;;;3.13;1.10;;;21.00;1.00;;;;;;5016152;28;20299;-83
2022/07/22 12:04:04;;;;;;;3.85;1.15;;;20.90;1.00;;;;;;5016263;28;20203;-83
2022/07/22 12:06:36;;;;;;;2.13;1.10;;;20.90;1.00;;;;;;5015989;28;20211;-82
2022/07/22 12:09:06;;;;;;;2.13;1.38;;;21.00;1.00;;;;;;5016657;28;20246;-81
2022/07/22 12:11:34;;;;;;;2.05;1.10;;;21.10;1.00;;;;;;5016684;28;20748;-84
2022/07/22 12:14:07;;;;;;;1.83;1.00;;;21.30;1.00;;;;;;5016606;28;20302;-84
2022/07/22 12:16:34;;;;;;;1.45;1.00;;;21.50;1.00;;;;;;5016507;28;20577;-83
2022/07/22 12:19:05;;;;;;;0.95;0.75;;;21.60;1.00;;;;;;5016482;28;20241;-84
2022/07/22 12:21:34;;;;;;;1.38;1.02;;;21.70;1.00;;;;;;5004755;28;20264;-83
2022/07/22 12:24:03;;;;;;;1.42;0.85;;;21.70;99.90;;;;;;4995943;28;20212;-84
2022/07/22 12:26:43;;;;;;;2.60;0.88;;;21.80;99.90;;;;;;5005237;28;20295;-76
2022/07/22 12:29:22;;;;;;;3.47;0.90;;;22.00;99.90;;;;;;5015526;28;20625;-82
2022/07/22 12:31:50;;;;;;;1.92;0.98;;;22.30;5.90;;;;;;5014581;28;20199;-79
2022/07/22 12:34:30;;;;;;;2.53;1.20;;;22.60;1.00;;;;;;5014821;28;20293;-86
2022/07/22 12:36:58;;;;;;;1.88;0.90;;;22.90;73.20;;;;;;5015383;28;20200;-80
2022/07/22 12:39:25;;;;;;;2.28;0.93;;;23.10;1.00;;;;;;5014268;28;20231;-81
2022/07/22 12:41:53;;;;;;;1.48;1.00;;;23.20;1.00;;;;;;4995072;28;20239;-79
2022/07/22 12:44:22;;;;;;;2.53;1.00;;;23.20;1.00;;;;;;4994560;28;20683;-81
2022/07/22 12:46:50;;;;;;;3.05;1.10;;;22.80;1.00;;;;;;4995403;28;20199;-80
2022/07/22 12:49:22;;;;;;;3.60;1.15;;;22.50;1.00;;;;;;4999589;28;20200;-86
2022/07/22 12:52:09;;;;;;;3.20;1.15;;;22.40;1.00;;;;;;5014361;28;20195;-80
2022/07/22 12:54:37;;;;;;;3.70;1.15;;;22.20;3.00;;;;;;5013952;28;20471;-78
2022/07/22 12:57:05;;;;;;;2.90;1.50;;;22.10;99.90;;;;;;5013906;28;20221;-78